createdAt,value
2018-06-17T00:00:39.185Z,100959.76
2018-06-17T00:03:08.281Z,100961.52
2018-06-17T00:05:37.385Z,100970.19
2018-06-17T00:08:06.509Z,100970.69
2018-06-17T00:10:35.609Z,100970.55
2018-06-17T00:13:04.702Z,100977.11
2018-06-17T00:15:33.797Z,100972.39
2018-06-17T00:18:02.890Z,100977.17
2018-06-17T00:20:31.991Z,100983.38
2018-06-17T00:23:01.074Z,100978.14
2018-06-17T00:25:30.165Z,100982.66
2018-06-17T00:27:59.269Z,100973.59
2018-06-17T00:30:28.353Z,100987.42
2018-06-17T00:32:57.453Z,100991.88
2018-06-17T00:35:26.529Z,100990.52
2018-06-17T00:37:55.637Z,100993.86
2018-06-17T00:40:24.721Z,100991.47
2018-06-17T00:42:53.849Z,100998.39
2018-06-17T00:45:22.937Z,100999.39
2018-06-17T00:47:52.045Z,101007.41
2018-06-17T00:50:21.134Z,100998.69
2018-06-17T00:52:50.234Z,101001.08
2018-06-17T00:55:19.309Z,100998.76
2018-06-17T00:57:50.729Z,101001.82
2018-06-17T01:00:21.077Z,100998.31
2018-06-17T01:02:50.169Z,101001.80
2018-06-17T01:05:19.269Z,100997.66
2018-06-17T01:07:48.382Z,100997.82
2018-06-17T01:10:17.494Z,101002.16
2018-06-17T01:12:46.588Z,101014.41
2018-06-17T01:15:15.681Z,101011.69
2018-06-17T01:17:44.774Z,101015.89
2018-06-17T01:20:16.378Z,101008.98
2018-06-17T01:22:45.469Z,101006.53
2018-06-17T01:25:14.565Z,101005.55
2018-06-17T01:27:43.645Z,101009.09
2018-06-17T01:30:12.746Z,101013.81
2018-06-17T01:32:41.830Z,101018.46
2018-06-17T01:35:10.929Z,101017.70
2018-06-17T01:37:40.022Z,101013.90
2018-06-17T01:40:09.129Z,101014.11
2018-06-17T01:42:38.208Z,101022.77
2018-06-17T01:45:07.290Z,101012.92
2018-06-17T01:47:36.411Z,101011.72
2018-06-17T01:50:05.501Z,101011.66
2018-06-17T01:52:34.593Z,101008.91
2018-06-17T01:55:03.677Z,101012.75
2018-06-17T01:57:32.769Z,101011.25
2018-06-17T02:00:01.868Z,101017.99
2018-06-17T02:02:30.978Z,101026.97
2018-06-17T02:05:05.282Z,101022.66
2018-06-17T02:07:39.517Z,101017.99
2018-06-17T02:11:15.642Z,101027.50
2018-06-17T02:13:44.740Z,101023.17
2018-06-17T02:16:13.809Z,101027.60
2018-06-17T02:18:42.902Z,101027.98
2018-06-17T02:21:11.988Z,101025.86
2018-06-17T02:23:41.073Z,101037.59
2018-06-17T02:26:10.159Z,101035.48
2018-06-17T02:28:39.274Z,101031.02
2018-06-17T02:31:08.358Z,101034.72
2018-06-17T02:33:37.519Z,101036.20
2018-06-17T02:36:06.625Z,101035.83
2018-06-17T02:38:35.709Z,101027.59
2018-06-17T02:41:05.397Z,101032.58
2018-06-17T02:43:34.473Z,101035.72
2018-06-17T02:46:08.829Z,101031.95
2018-06-17T02:48:43.194Z,101025.41
2018-06-17T02:51:17.818Z,101040.25
2018-06-17T02:53:52.317Z,101032.73
2018-06-17T02:56:21.404Z,101042.98
2018-06-17T02:58:50.488Z,101041.02
2018-06-17T03:01:19.590Z,101045.39
2018-06-17T03:03:48.684Z,101042.22
2018-06-17T03:06:17.790Z,101050.28
2018-06-17T03:08:46.885Z,101045.72
2018-06-17T03:11:15.989Z,101043.52
2018-06-17T03:13:45.089Z,101046.69
2018-06-17T03:16:14.189Z,101048.72
2018-06-17T03:18:43.315Z,101052.68
2018-06-17T03:21:12.413Z,101035.77
2018-06-17T03:23:41.501Z,101033.35
2018-06-17T03:26:16.022Z,101035.13
2018-06-17T03:28:50.517Z,101037.99
2018-06-17T03:31:20.413Z,101034.49
2018-06-17T03:33:55.065Z,101036.50
2018-06-17T03:36:24.149Z,101038.52
2018-06-17T03:38:53.223Z,101041.94
2018-06-17T03:41:22.314Z,101050.13
2018-06-17T03:43:51.410Z,101052.11
2018-06-17T03:46:20.506Z,101060.91
2018-06-17T03:48:49.596Z,101057.23
2018-06-17T03:51:18.713Z,101052.40
2018-06-17T03:53:47.814Z,101054.56
2018-06-17T03:56:16.913Z,101049.56
2018-06-17T03:58:46.009Z,101055.98
2018-06-17T04:01:15.113Z,101052.28
2018-06-17T04:03:44.194Z,101057.09
2018-06-17T04:06:13.341Z,101059.30
2018-06-17T04:08:42.455Z,101061.91
2018-06-17T04:11:11.822Z,101061.68
2018-06-17T04:13:40.945Z,101058.55
2018-06-17T04:16:10.199Z,101064.02
2018-06-17T04:18:39.301Z,101059.80
2018-06-17T04:21:08.405Z,101064.84
2018-06-17T04:23:37.501Z,101068.72
2018-06-17T04:26:06.951Z,101080.45
2018-06-17T04:28:36.088Z,101073.34
2018-06-17T04:31:05.221Z,101065.03
2018-06-17T04:33:34.289Z,101063.59
2018-06-17T04:36:03.409Z,101070.59
2018-06-17T04:38:32.497Z,101060.87
2018-06-17T04:41:01.581Z,101058.03
2018-06-17T04:43:30.661Z,101057.53
2018-06-17T04:45:59.749Z,101055.44
2018-06-17T04:48:28.888Z,101057.18
2018-06-17T04:50:57.949Z,101059.16
2018-06-17T04:53:27.045Z,101058.03
2018-06-17T04:55:56.173Z,101062.67
2018-06-17T04:58:25.271Z,101069.83
2018-06-17T05:00:54.377Z,101071.30
2018-06-17T05:03:23.468Z,101073.46
2018-06-17T05:05:52.573Z,101074.56
2018-06-17T05:08:21.673Z,101065.19
2018-06-17T05:10:50.759Z,101070.64
2018-06-17T05:13:19.865Z,101062.61
2018-06-17T05:15:48.953Z,101059.48
2018-06-17T05:18:18.051Z,101066.41
2018-06-17T05:20:47.133Z,101067.83
2018-06-17T05:23:16.252Z,101073.78
2018-06-17T05:25:45.513Z,101067.83
2018-06-17T05:28:14.601Z,101076.02
2018-06-17T05:30:43.686Z,101063.83
2018-06-17T05:33:12.785Z,101072.00
2018-06-17T05:35:41.889Z,101062.28
2018-06-17T05:38:10.991Z,101066.63
2018-06-17T05:40:40.109Z,101059.89
2018-06-17T05:43:09.219Z,101066.47
2018-06-17T05:45:38.297Z,101056.53
2018-06-17T05:48:07.465Z,101061.44
2018-06-17T05:50:36.561Z,101069.76
2018-06-17T05:53:05.701Z,101064.28
2018-06-17T05:55:34.783Z,101066.88
2018-06-17T05:58:04.861Z,101063.69
2018-06-17T06:00:33.965Z,101067.20
2018-06-17T06:03:03.081Z,101070.61
2018-06-17T06:05:32.181Z,101078.34
2018-06-17T06:08:01.274Z,101082.86
2018-06-17T06:10:30.388Z,101086.86
2018-06-17T06:12:59.486Z,101080.02
2018-06-17T06:15:28.581Z,101087.73
2018-06-17T06:17:57.682Z,101090.95
2018-06-17T06:20:26.785Z,101089.78
2018-06-17T06:22:55.966Z,101091.02
2018-06-17T06:25:25.074Z,101092.59
2018-06-17T06:27:54.225Z,101091.98
2018-06-17T06:30:23.356Z,101093.55
2018-06-17T06:32:52.776Z,101087.21
2018-06-17T06:35:21.868Z,101097.84
2018-06-17T06:37:50.948Z,101097.10
2018-06-17T06:40:20.049Z,101097.31
2018-06-17T06:42:49.145Z,101095.55
2018-06-17T06:45:18.261Z,101097.39
2018-06-17T06:47:47.443Z,101101.05
2018-06-17T06:50:16.561Z,101108.89
2018-06-17T06:52:45.673Z,101109.34
2018-06-17T06:55:14.767Z,101119.97
2018-06-17T06:57:44.133Z,101106.44
2018-06-17T07:00:13.245Z,101112.56
2018-06-17T07:02:56.055Z,101104.05
2018-06-17T07:05:36.341Z,101104.52
2018-06-17T07:08:16.706Z,101109.05
2018-06-17T07:10:45.816Z,101108.62
2018-06-17T07:13:14.927Z,101102.68
2018-06-17T07:15:55.404Z,101099.38
2018-06-17T07:18:31.937Z,101097.80
2018-06-17T07:21:00.753Z,101097.59
2018-06-17T07:23:29.742Z,101101.20
2018-06-17T07:26:51.153Z,101097.73
2018-06-17T07:29:35.576Z,101104.59
2018-06-17T07:32:04.466Z,101101.92
2018-06-17T07:34:33.237Z,101105.47
2018-06-17T07:37:02.101Z,101110.23
2018-06-17T07:41:40.352Z,101103.72
2018-06-17T07:44:09.177Z,101107.73
2018-06-17T07:46:38.022Z,101109.17
2018-06-17T07:49:28.061Z,101109.17
2018-06-17T07:53:10.846Z,101108.63
2018-06-17T07:55:39.805Z,101107.95
2018-06-17T07:58:08.669Z,101104.71
2018-06-17T08:00:37.489Z,101107.60
2018-06-17T08:03:06.301Z,101106.95
2018-06-17T08:05:35.134Z,101108.92
2018-06-17T08:08:03.957Z,101106.52
2018-06-17T08:10:32.792Z,101103.07
2018-06-17T08:13:01.622Z,101099.30
2018-06-17T08:15:30.425Z,101102.39
2018-06-17T08:17:59.299Z,101095.41
2018-06-17T08:20:28.114Z,101097.52
2018-06-17T08:22:56.980Z,101090.74
2018-06-17T08:25:25.880Z,101082.27
2018-06-17T08:27:54.718Z,101089.30
2018-06-17T08:30:23.602Z,101079.34
2018-06-17T08:32:52.390Z,101082.34
2018-06-17T08:35:21.227Z,101080.89
2018-06-17T08:37:50.049Z,101090.67
2018-06-17T08:40:18.849Z,101096.66
2018-06-17T08:42:47.653Z,101096.66
2018-06-17T08:45:16.461Z,101092.70
2018-06-17T08:47:45.274Z,101093.06
2018-06-17T08:50:14.096Z,101095.94
2018-06-17T08:52:42.917Z,101087.20
2018-06-17T08:55:11.805Z,101099.92
2018-06-17T08:57:40.621Z,101085.42
2018-06-17T09:00:10.490Z,101086.47
2018-06-17T09:02:39.381Z,101082.53
2018-06-17T09:05:08.369Z,101096.56
2018-06-17T09:07:37.198Z,101082.32
2018-06-17T09:10:07.042Z,101098.35
2018-06-17T09:12:35.877Z,101098.63
2018-06-17T09:15:04.699Z,101096.89
2018-06-17T09:17:33.511Z,101092.91
2018-06-17T09:20:02.346Z,101100.90
2018-06-17T09:22:31.244Z,101090.55
2018-06-17T09:25:00.043Z,101087.36
2018-06-17T09:27:28.896Z,101085.39
2018-06-17T09:29:57.769Z,101090.30
2018-06-17T09:32:26.630Z,101086.20
2018-06-17T09:34:55.917Z,101086.05
2018-06-17T09:37:25.105Z,101090.34
2018-06-17T09:39:53.930Z,101087.81
2018-06-17T09:42:22.748Z,101093.63
2018-06-17T09:44:51.621Z,101085.30
2018-06-17T09:47:20.472Z,101086.50
2018-06-17T09:49:50.506Z,101092.30
2018-06-17T09:52:20.532Z,101090.17
2018-06-17T09:54:49.377Z,101092.05
2018-06-17T09:57:19.367Z,101094.83
2018-06-17T09:59:48.211Z,101085.94
2018-06-17T10:02:17.034Z,101087.84
2018-06-17T10:04:45.865Z,101094.87
2018-06-17T10:07:14.682Z,101088.42
2018-06-17T10:09:56.697Z,101086.09
2018-06-17T10:12:25.589Z,101088.23
2018-06-17T10:14:54.693Z,101088.56
2018-06-17T10:17:23.816Z,101087.52
2018-06-17T10:19:52.925Z,101089.08
2018-06-17T10:22:22.013Z,101097.20
2018-06-17T10:24:51.100Z,101096.62
2018-06-17T10:27:20.193Z,101087.73
2018-06-17T10:29:49.292Z,101082.98
2018-06-17T10:32:18.377Z,101082.81
2018-06-17T10:34:47.472Z,101083.14
2018-06-17T10:37:16.804Z,101080.33
2018-06-17T10:39:46.021Z,101079.22
2018-06-17T10:42:15.177Z,101087.02
2018-06-17T10:44:48.046Z,101076.21
2018-06-17T10:47:17.525Z,101081.06
2018-06-17T10:49:46.583Z,101081.73
2018-06-17T10:52:15.681Z,101085.19
2018-06-17T10:54:44.781Z,101090.22
2018-06-17T10:57:13.878Z,101088.04
2018-06-17T10:59:43.045Z,101085.09
2018-06-17T11:02:12.141Z,101092.79
2018-06-17T11:04:41.230Z,101090.01
2018-06-17T11:07:10.362Z,101086.62
2018-06-17T11:09:39.437Z,101084.91
2018-06-17T11:12:08.525Z,101079.26
2018-06-17T11:14:37.617Z,101081.04
2018-06-17T11:17:06.727Z,101079.98
2018-06-17T11:19:35.865Z,101073.45
2018-06-17T11:22:04.949Z,101078.95
2018-06-17T11:24:34.061Z,101076.47
2018-06-17T11:27:03.149Z,101070.36
2018-06-17T11:29:32.250Z,101074.05
2018-06-17T11:32:01.445Z,101074.61
2018-06-17T11:34:30.595Z,101076.07
2018-06-17T11:36:59.662Z,101067.25
2018-06-17T11:39:28.758Z,101073.16
2018-06-17T11:41:57.919Z,101077.59
2018-06-17T11:44:27.012Z,101068.73
2018-06-17T11:46:57.390Z,101062.70
2018-06-17T11:49:26.525Z,101073.53
2018-06-17T11:51:55.646Z,101076.97
2018-06-17T11:54:24.729Z,101072.74
2018-06-17T11:56:53.817Z,101073.84
2018-06-17T11:59:22.906Z,101071.78
2018-06-17T12:01:52.066Z,101077.13
2018-06-17T12:04:21.102Z,101076.11
2018-06-17T12:06:50.202Z,101074.20
2018-06-17T12:09:19.289Z,101074.08
2018-06-17T12:11:48.393Z,101074.59
2018-06-17T12:14:17.472Z,101085.58
2018-06-17T12:16:46.549Z,101084.75
2018-06-17T12:19:15.667Z,101082.66
2018-06-17T12:21:44.789Z,101085.32
2018-06-17T12:24:13.877Z,101080.73
2018-06-17T12:26:43.006Z,101086.07
2018-06-17T12:29:12.108Z,101081.19
2018-06-17T12:31:41.205Z,101091.61
2018-06-17T12:34:10.304Z,101089.83
2018-06-17T12:36:39.409Z,101091.19
2018-06-17T12:39:10.402Z,101089.73
2018-06-17T12:41:39.561Z,101096.60
2018-06-17T12:44:08.677Z,101095.06
2018-06-17T12:46:37.883Z,101101.44
2018-06-17T12:49:07.032Z,101104.84
2018-06-17T12:51:36.105Z,101097.98
2018-06-17T12:54:05.258Z,101096.00
2018-06-17T12:56:34.345Z,101098.30
2018-06-17T12:59:03.446Z,101102.16
2018-06-17T13:01:32.537Z,101100.09
2018-06-17T13:04:01.717Z,101112.72
2018-06-17T13:06:30.814Z,101115.32
2018-06-17T13:08:59.915Z,101112.58
2018-06-17T13:11:29.001Z,101121.70
2018-06-17T13:13:58.125Z,101121.97
2018-06-17T13:16:27.251Z,101127.38
2018-06-17T13:18:56.333Z,101132.70
2018-06-17T13:21:25.445Z,101126.75
2018-06-17T13:23:54.615Z,101128.86
2018-06-17T13:26:23.705Z,101134.52
2018-06-17T13:28:52.817Z,101132.41
2018-06-17T13:31:21.953Z,101138.48
2018-06-17T13:33:51.026Z,101136.77
2018-06-17T13:36:20.138Z,101141.67
2018-06-17T13:38:49.812Z,101144.41
2018-06-17T13:41:18.915Z,101148.98
2018-06-17T13:43:48.074Z,101150.54
2018-06-17T13:46:17.189Z,101155.53
2018-06-17T13:48:46.285Z,101158.94
2018-06-17T13:51:15.708Z,101163.80
2018-06-17T13:53:44.805Z,101161.85
2018-06-17T13:56:13.893Z,101164.69
2018-06-17T13:58:43.001Z,101166.44
2018-06-17T14:01:12.085Z,101170.80
2018-06-17T14:03:41.207Z,101169.07
2018-06-17T14:06:10.337Z,101171.60
2018-06-17T14:08:39.418Z,101173.44
2018-06-17T14:11:08.548Z,101171.64
2018-06-17T14:13:37.638Z,101173.13
2018-06-17T14:16:07.034Z,101173.89
2018-06-17T14:18:36.146Z,101176.84
2018-06-17T14:21:05.244Z,101183.15
2018-06-17T14:23:34.555Z,101184.27
2018-06-17T14:26:03.892Z,101187.67
2018-06-17T14:28:32.980Z,101182.11
2018-06-17T14:31:02.082Z,101188.55
2018-06-17T14:33:31.197Z,101181.39
2018-06-17T14:36:00.273Z,101186.84
2018-06-17T14:38:29.365Z,101183.16
2018-06-17T14:41:03.853Z,101188.09
2018-06-17T14:43:38.390Z,101188.77
2018-06-17T14:46:12.929Z,101194.81
2018-06-17T14:48:47.178Z,101186.56
2018-06-17T14:51:21.413Z,101186.45
2018-06-17T14:53:50.518Z,101188.94
2018-06-17T14:56:20.585Z,101187.92
2018-06-17T14:58:49.705Z,101187.22
2018-06-17T15:01:19.053Z,101190.73
2018-06-17T15:03:49.253Z,101189.55
2018-06-17T15:06:18.320Z,101194.03
2018-06-17T15:08:47.548Z,101185.87
2018-06-17T15:11:17.402Z,101189.62
2018-06-17T15:13:46.497Z,101192.90
2018-06-17T15:16:15.593Z,101188.22
2018-06-17T15:18:44.698Z,101196.98
2018-06-17T15:21:14.218Z,101186.67
2018-06-17T15:23:44.300Z,101199.39
2018-06-17T15:26:13.381Z,101197.92
2018-06-17T15:28:42.553Z,101200.47
2018-06-17T15:31:17.157Z,101197.34
2018-06-17T15:33:51.601Z,101197.62
2018-06-17T15:36:26.958Z,101207.50
2018-06-17T15:38:57.645Z,101207.24
2018-06-17T15:41:27.997Z,101208.17
2018-06-17T15:43:59.024Z,101209.21
2018-06-17T15:46:28.443Z,101211.98
2018-06-17T15:48:57.593Z,101212.70
2018-06-17T15:51:26.675Z,101214.33
2018-06-17T15:53:55.786Z,101224.87
2018-06-17T15:56:24.913Z,101223.87
2018-06-17T15:58:53.993Z,101220.83
2018-06-17T16:01:23.153Z,101215.41
2018-06-17T16:03:52.277Z,101217.05
2018-06-17T16:06:21.685Z,101219.42
2018-06-17T16:08:50.837Z,101225.25
2018-06-17T16:11:19.921Z,101225.73
2018-06-17T16:13:54.353Z,101233.33
2018-06-17T16:16:28.729Z,101236.74
2018-06-17T16:19:03.108Z,101240.27
2018-06-17T16:21:32.230Z,101242.86
2018-06-17T16:24:01.328Z,101242.22
2018-06-17T16:26:30.476Z,101243.13
2018-06-17T16:28:59.584Z,101243.15
2018-06-17T16:31:28.704Z,101243.16
2018-06-17T16:33:58.895Z,101247.74
2018-06-17T16:36:28.016Z,101250.00
2018-06-17T16:38:57.133Z,101240.01
2018-06-17T16:41:26.239Z,101250.20
2018-06-17T16:43:55.327Z,101255.25
2018-06-17T16:46:24.478Z,101250.70
2018-06-17T16:48:53.661Z,101256.63
2018-06-17T16:51:28.144Z,101255.78
2018-06-17T16:54:02.517Z,101268.72
2018-06-17T16:56:37.002Z,101261.22
2018-06-17T16:59:17.045Z,101264.58
2018-06-17T17:01:46.153Z,101265.16
2018-06-17T17:04:15.285Z,101270.38
2018-06-17T17:06:44.537Z,101273.99
2018-06-17T17:09:13.621Z,101271.36
2018-06-17T17:11:42.737Z,101272.11
2018-06-17T17:14:12.421Z,101274.66
2018-06-17T17:16:42.272Z,101274.65
2018-06-17T17:19:11.408Z,101280.17
2018-06-17T17:21:40.550Z,101275.88
2018-06-17T17:24:09.658Z,101278.01
2018-06-17T17:26:38.769Z,101283.97
2018-06-17T17:29:07.877Z,101294.95
2018-06-17T17:31:42.417Z,101297.82
2018-06-17T17:34:16.838Z,101291.45
2018-06-17T17:36:51.202Z,101303.27
2018-06-17T17:39:25.504Z,101294.80
2018-06-17T17:41:54.646Z,101305.92
2018-06-17T17:44:23.762Z,101304.36
2018-06-17T17:47:29.699Z,101310.45
2018-06-17T17:49:58.797Z,101305.40
2018-06-17T17:52:27.962Z,101299.62
2018-06-17T17:54:57.081Z,101302.29
2018-06-17T17:57:29.773Z,101297.17
2018-06-17T17:59:58.870Z,101289.73
2018-06-17T18:02:27.982Z,101278.72
2018-06-17T18:04:57.178Z,101284.35
2018-06-17T18:07:26.309Z,101292.70
2018-06-17T18:09:57.546Z,101289.22
2018-06-17T18:12:26.661Z,101276.45
2018-06-17T18:14:55.880Z,101287.48
2018-06-17T18:17:24.974Z,101287.20
2018-06-17T18:19:54.077Z,101290.87
2018-06-17T18:22:23.193Z,101288.88
2018-06-17T18:24:57.625Z,101287.17
2018-06-17T18:27:32.014Z,101292.58
2018-06-17T18:30:06.234Z,101286.25
2018-06-17T18:32:40.633Z,101283.95
2018-06-17T18:35:15.209Z,101286.77
2018-06-17T18:37:44.354Z,101285.45
2018-06-17T18:40:13.453Z,101293.59
2018-06-17T18:42:42.580Z,101286.06
2018-06-17T18:45:11.719Z,101289.70
2018-06-17T18:47:40.826Z,101290.83
2018-06-17T18:50:09.942Z,101287.77
2018-06-17T18:52:39.057Z,101285.37
2018-06-17T18:55:08.797Z,101287.23
2018-06-17T18:57:40.023Z,101287.13
2018-06-17T19:00:09.378Z,101279.14
2018-06-17T19:02:38.477Z,101283.63
2018-06-17T19:05:07.590Z,101281.16
2018-06-17T19:07:36.709Z,101281.95
2018-06-17T19:10:11.180Z,101289.00
2018-06-17T19:12:45.403Z,101283.30
2018-06-17T19:15:20.006Z,101283.20
2018-06-17T19:17:54.705Z,101284.66
2018-06-17T19:20:23.921Z,101285.13
2018-06-17T19:22:53.117Z,101291.96
2018-06-17T19:25:22.375Z,101292.79
2018-06-17T19:27:51.489Z,101298.61
2018-06-17T19:30:20.609Z,101296.17
2018-06-17T19:32:49.729Z,101294.11
2018-06-17T19:35:18.889Z,101297.71
2018-06-17T19:37:48.016Z,101307.18
2018-06-17T19:40:17.170Z,101312.00
2018-06-17T19:42:46.266Z,101312.00
2018-06-17T19:45:15.405Z,101317.78
2018-06-17T19:47:44.514Z,101321.55
2018-06-17T19:50:18.780Z,101324.91
2018-06-17T19:52:53.269Z,101330.73
2018-06-17T19:55:27.726Z,101329.87
2018-06-17T19:58:02.084Z,101340.11
2018-06-17T20:00:33.812Z,101340.34
2018-06-17T20:03:03.622Z,101340.05
2018-06-17T20:05:32.898Z,101340.75
2018-06-17T20:08:02.028Z,101350.64
2018-06-17T20:10:31.135Z,101348.59
2018-06-17T20:13:06.885Z,101349.67
2018-06-17T20:15:35.979Z,101340.35
2018-06-17T20:18:05.212Z,101340.45
2018-06-17T20:20:34.319Z,101340.22
2018-06-17T20:23:03.449Z,101337.78
2018-06-17T20:25:32.574Z,101340.88
2018-06-17T20:28:01.693Z,101345.61
2018-06-17T20:30:30.793Z,101351.62
2018-06-17T20:33:05.441Z,101357.49
2018-06-17T20:35:39.933Z,101356.83
2018-06-17T20:38:17.850Z,101360.70
2018-06-17T20:40:52.829Z,101365.08
2018-06-17T20:43:27.282Z,101368.57
2018-06-17T20:45:56.757Z,101367.06
2018-06-17T20:48:25.873Z,101371.02
2018-06-17T20:50:57.016Z,101367.06
2018-06-17T20:53:26.128Z,101367.45
2018-06-17T20:55:55.262Z,101366.33
2018-06-17T20:58:24.400Z,101366.66
2018-06-17T21:00:53.541Z,101369.95
2018-06-17T21:03:22.747Z,101374.41
2018-06-17T21:05:51.882Z,101380.02
2018-06-17T21:08:21.020Z,101377.59
2018-06-17T21:10:50.196Z,101387.59
2018-06-17T21:13:19.569Z,101388.78
2018-06-17T21:15:48.860Z,101386.64
2018-06-17T21:18:23.424Z,101385.03
2018-06-17T21:20:57.981Z,101390.42
2018-06-17T21:23:32.380Z,101387.03
2018-06-17T21:26:06.809Z,101383.58
2018-06-17T21:28:35.918Z,101385.91
2018-06-17T21:31:05.075Z,101390.02
2018-06-17T21:33:34.197Z,101384.34
2018-06-17T21:36:03.349Z,101386.03
2018-06-17T21:38:32.421Z,101386.73
2018-06-17T21:41:13.465Z,101385.27
2018-06-17T21:43:42.589Z,101387.30
2018-06-17T21:46:11.781Z,101386.90
2018-06-17T21:48:40.885Z,101383.36
2018-06-17T21:51:09.985Z,101393.00
2018-06-17T21:53:39.129Z,101384.88
2018-06-17T21:56:08.225Z,101394.69
2018-06-17T21:58:42.457Z,101404.88
2018-06-17T22:01:11.558Z,101403.37
2018-06-17T22:03:40.675Z,101399.62
2018-06-17T22:06:09.769Z,101397.59
2018-06-17T22:08:44.161Z,101391.92
2018-06-17T22:11:18.569Z,101395.85
2018-06-17T22:13:52.994Z,101388.27
2018-06-17T22:16:27.252Z,101396.03
2018-06-17T22:18:56.395Z,101399.40
2018-06-17T22:21:25.481Z,101400.97
2018-06-17T22:23:54.597Z,101393.36
2018-06-17T22:26:23.753Z,101405.74
2018-06-17T22:28:52.873Z,101386.33
2018-06-17T22:31:21.973Z,101385.32
2018-06-17T22:33:51.061Z,101393.02
2018-06-17T22:36:20.170Z,101389.16
2018-06-17T22:38:49.274Z,101382.94
2018-06-17T22:41:18.402Z,101376.86
2018-06-17T22:43:47.513Z,101378.23
2018-06-17T22:46:16.618Z,101385.55
2018-06-17T22:48:45.701Z,101387.39
2018-06-17T22:51:14.809Z,101390.06
2018-06-17T22:53:55.148Z,101390.36
2018-06-17T22:56:29.467Z,101400.94
2018-06-17T22:59:03.694Z,101410.12
2018-06-17T23:01:38.248Z,101406.53
2018-06-17T23:04:12.426Z,101412.47
2018-06-17T23:06:46.954Z,101409.53
2018-06-17T23:09:21.256Z,101405.00
2018-06-17T23:11:50.365Z,101409.28
2018-06-17T23:14:19.506Z,101399.14
2018-06-17T23:16:48.622Z,101404.48
2018-06-17T23:19:17.720Z,101408.09
2018-06-17T23:21:46.833Z,101405.55
2018-06-17T23:24:15.983Z,101414.69
2018-06-17T23:26:45.121Z,101409.14
2018-06-17T23:29:14.609Z,101407.84
2018-06-17T23:31:43.762Z,101417.70
2018-06-17T23:34:12.873Z,101421.63
2018-06-17T23:36:42.007Z,101424.83
2018-06-17T23:39:11.993Z,101430.64
2018-06-17T23:41:41.103Z,101430.46
2018-06-17T23:44:10.209Z,101427.31
2018-06-17T23:46:44.614Z,101421.67
2018-06-17T23:49:18.990Z,101433.61
2018-06-17T23:51:53.440Z,101436.10
2018-06-17T23:54:27.841Z,101434.84
2018-06-17T23:56:56.990Z,101431.95
2018-06-17T23:59:26.107Z,101429.92
